createdAt,value
2023-01-08T00:00:29.003Z,97358.22
2023-01-08T00:02:56.587Z,97336.81
2023-01-08T00:05:24.116Z,97338.97
2023-01-08T00:07:51.641Z,97333.84
2023-01-08T00:10:21.578Z,97334.03
2023-01-08T00:12:49.024Z,97329.72
2023-01-08T00:15:18.084Z,97333.22
2023-01-08T00:17:45.649Z,97337.19
2023-01-08T00:20:13.241Z,97322.72
2023-01-08T00:22:40.871Z,97325.34
2023-01-08T00:25:09.186Z,97316.78
2023-01-08T00:27:36.668Z,97314.28
2023-01-08T00:30:04.515Z,97315.13
2023-01-08T00:32:33.386Z,97313.28
2023-01-08T00:35:01.530Z,97313.63
2023-01-08T00:37:29.110Z,97310.97
2023-01-08T00:39:56.566Z,97312.81
2023-01-08T00:42:24.137Z,97308.19
2023-01-08T00:44:51.620Z,97319.31
2023-01-08T00:47:19.075Z,97315.34
2023-01-08T00:49:47.915Z,97308.69
2023-01-08T00:52:15.377Z,97315.16
2023-01-08T00:54:42.878Z,97306.38
2023-01-08T00:57:10.452Z,97294.28
2023-01-08T00:59:37.943Z,97298.75
2023-01-08T01:02:05.648Z,97286.47
2023-01-08T01:04:33.216Z,97281.00
2023-01-08T01:07:02.077Z,97269.91
2023-01-08T01:09:29.873Z,97277.03
2023-01-08T01:11:57.601Z,97279.22
2023-01-08T01:14:25.147Z,97274.53
2023-01-08T01:16:52.675Z,97276.91
2023-01-08T01:19:20.209Z,97277.72
2023-01-08T01:21:47.691Z,97279.38
2023-01-08T01:24:16.502Z,97283.19
2023-01-08T01:26:44.027Z,97290.19
2023-01-08T01:29:11.446Z,97286.81
2023-01-08T01:31:38.990Z,97279.38
2023-01-08T01:34:10.190Z,97292.66
2023-01-08T01:36:40.770Z,97297.31
2023-01-08T01:39:08.413Z,97288.53
2023-01-08T01:41:40.670Z,97288.53
2023-01-08T01:44:40.602Z,97287.22
2023-01-08T01:47:16.635Z,97288.19
2023-01-08T01:49:52.705Z,97281.06
2023-01-08T01:52:22.202Z,97272.94
2023-01-08T01:54:50.528Z,97266.81
2023-01-08T01:57:20.071Z,97270.31
2023-01-08T01:59:49.689Z,97282.06
2023-01-08T02:02:17.323Z,97275.63
2023-01-08T02:04:44.975Z,97269.84
2023-01-08T02:07:17.833Z,97260.53
2023-01-08T02:09:50.500Z,97259.00
2023-01-08T02:12:22.156Z,97249.72
2023-01-08T02:15:01.048Z,97247.59
2023-01-08T02:17:36.980Z,97254.56
2023-01-08T02:20:11.785Z,97257.88
2023-01-08T02:22:48.986Z,97254.75
2023-01-08T02:25:28.047Z,97263.84
2023-01-08T02:28:00.755Z,97245.75
2023-01-08T02:30:28.365Z,97243.78
2023-01-08T02:32:55.860Z,97241.78
2023-01-08T02:35:23.384Z,97242.13
2023-01-08T02:37:50.891Z,97245.28
2023-01-08T02:40:25.953Z,97245.47
2023-01-08T02:43:00.170Z,97242.16
2023-01-08T02:45:37.297Z,97244.31
2023-01-08T02:48:11.110Z,97244.47
2023-01-08T02:50:42.038Z,97244.81
2023-01-08T02:53:14.104Z,97231.53
2023-01-08T02:55:45.612Z,97227.53
2023-01-08T02:58:15.199Z,97230.06
2023-01-08T03:00:45.134Z,97235.84
2023-01-08T03:03:17.331Z,97237.81
2023-01-08T03:05:49.126Z,97234.38
2023-01-08T03:08:19.179Z,97238.16
2023-01-08T03:10:50.443Z,97229.06
2023-01-08T03:13:24.722Z,97223.25
2023-01-08T03:15:56.302Z,97232.72
2023-01-08T03:18:30.730Z,97207.69
2023-01-08T03:20:58.805Z,97209.47
2023-01-08T03:23:28.793Z,97195.59
2023-01-08T03:25:56.402Z,97188.25
2023-01-08T03:28:30.526Z,97197.06
2023-01-08T03:30:59.989Z,97180.31
2023-01-08T03:33:28.809Z,97181.63
2023-01-08T03:35:58.143Z,97175.50
2023-01-08T03:38:29.171Z,97177.16
2023-01-08T03:41:01.793Z,97176.34
2023-01-08T03:43:30.919Z,97179.38
2023-01-08T03:46:02.805Z,97171.75
2023-01-08T03:48:32.165Z,97155.16
2023-01-08T03:51:00.381Z,97156.16
2023-01-08T03:53:28.585Z,97163.81
2023-01-08T03:55:57.436Z,97157.31
2023-01-08T03:58:24.987Z,97150.66
2023-01-08T04:00:53.753Z,97145.03
2023-01-08T04:03:21.252Z,97138.94
2023-01-08T04:05:48.675Z,97138.91
2023-01-08T04:08:16.104Z,97136.25
2023-01-08T04:10:43.582Z,97140.38
2023-01-08T04:13:11.037Z,97146.75
2023-01-08T04:15:38.559Z,97147.88
2023-01-08T04:18:07.377Z,97141.88
2023-01-08T04:20:34.836Z,97147.19
2023-01-08T04:23:02.307Z,97158.81
2023-01-08T04:25:29.769Z,97164.91
2023-01-08T04:27:57.214Z,97164.28
2023-01-08T04:30:24.656Z,97159.59
2023-01-08T04:32:52.095Z,97152.31
2023-01-08T04:35:20.889Z,97142.88
2023-01-08T04:37:48.329Z,97147.84
2023-01-08T04:40:15.928Z,97148.84
2023-01-08T04:42:43.397Z,97152.81
2023-01-08T04:45:11.468Z,97155.97
2023-01-08T04:47:38.912Z,97150.84
2023-01-08T04:50:07.384Z,97133.63
2023-01-08T04:52:36.309Z,97134.50
2023-01-08T04:55:04.398Z,97147.25
2023-01-08T04:57:31.863Z,97132.97
2023-01-08T04:59:59.311Z,97132.59
2023-01-08T05:02:26.914Z,97136.41
2023-01-08T05:04:54.472Z,97125.69
2023-01-08T05:07:21.941Z,97117.78
2023-01-08T05:09:50.725Z,97109.78
2023-01-08T05:12:18.189Z,97097.16
2023-01-08T05:14:45.779Z,97102.09
2023-01-08T05:17:13.248Z,97113.81
2023-01-08T05:19:43.544Z,97114.16
2023-01-08T05:22:11.004Z,97117.94
2023-01-08T05:24:38.503Z,97125.91
2023-01-08T05:27:07.421Z,97119.91
2023-01-08T05:29:34.856Z,97126.22
2023-01-08T05:32:02.429Z,97126.72
2023-01-08T05:34:32.711Z,97119.59
2023-01-08T05:37:00.126Z,97118.00
2023-01-08T05:39:27.565Z,97114.25
2023-01-08T05:41:54.990Z,97111.09
2023-01-08T05:44:23.810Z,97104.94
2023-01-08T05:46:53.633Z,97105.97
2023-01-08T05:49:21.913Z,97105.34
2023-01-08T05:51:49.378Z,97111.72
2023-01-08T05:54:17.258Z,97106.78
2023-01-08T05:56:44.718Z,97098.75
2023-01-08T05:59:12.655Z,97092.63
2023-01-08T06:01:41.600Z,97095.59
2023-01-08T06:04:09.033Z,97102.09
2023-01-08T06:06:36.477Z,97094.44
2023-01-08T06:09:03.957Z,97086.78
2023-01-08T06:11:31.449Z,97075.28
2023-01-08T06:13:58.968Z,97073.59
2023-01-08T06:16:26.493Z,97079.22
2023-01-08T06:18:55.279Z,97079.72
2023-01-08T06:21:22.730Z,97079.59
2023-01-08T06:23:50.176Z,97084.78
2023-01-08T06:26:17.675Z,97083.16
2023-01-08T06:28:45.914Z,97088.34
2023-01-08T06:31:13.442Z,97081.91
2023-01-08T06:33:40.922Z,97084.59
2023-01-08T06:36:12.161Z,97088.75
2023-01-08T06:38:39.688Z,97085.75
2023-01-08T06:41:09.945Z,97089.53
2023-01-08T06:43:38.067Z,97079.00
2023-01-08T06:46:06.148Z,97087.69
2023-01-08T06:48:33.670Z,97080.88
2023-01-08T06:51:01.804Z,97079.22
2023-01-08T06:53:30.636Z,97081.13
2023-01-08T06:55:58.678Z,97080.66
2023-01-08T06:58:26.958Z,97071.53
2023-01-08T07:00:54.651Z,97080.50
2023-01-08T07:03:22.334Z,97094.75
2023-01-08T07:05:50.629Z,97092.75
2023-01-08T07:08:18.738Z,97085.03
2023-01-08T07:10:47.636Z,97084.59
2023-01-08T07:13:15.322Z,97091.97
2023-01-08T07:15:43.777Z,97085.47
2023-01-08T07:18:14.870Z,97087.44
2023-01-08T07:20:42.319Z,97089.94
2023-01-08T07:23:12.228Z,97100.66
2023-01-08T07:25:39.748Z,97106.94
2023-01-08T07:28:12.630Z,97113.84
2023-01-08T07:30:40.103Z,97110.94
2023-01-08T07:33:07.615Z,97110.13
2023-01-08T07:35:35.494Z,97108.25
2023-01-08T07:38:02.964Z,97107.47
2023-01-08T07:40:30.457Z,97115.66
2023-01-08T07:42:59.213Z,97108.13
2023-01-08T07:45:29.057Z,97101.56
2023-01-08T07:47:58.766Z,97109.34
2023-01-08T07:50:27.006Z,97108.25
2023-01-08T07:52:57.262Z,97116.53
2023-01-08T07:55:24.774Z,97119.88
2023-01-08T07:57:52.335Z,97125.41
2023-01-08T08:00:20.246Z,97122.41
2023-01-08T08:02:49.532Z,97119.28
2023-01-08T08:05:18.088Z,97113.72
2023-01-08T08:07:45.528Z,97106.81
2023-01-08T08:10:13.062Z,97116.81
2023-01-08T08:12:40.568Z,97111.50
2023-01-08T08:15:09.320Z,97118.41
2023-01-08T08:17:36.762Z,97109.72
2023-01-08T08:20:06.454Z,97114.16
2023-01-08T08:22:33.934Z,97112.59
2023-01-08T08:25:01.349Z,97108.47
2023-01-08T08:27:28.803Z,97112.06
2023-01-08T08:29:56.297Z,97117.19
2023-01-08T08:32:23.748Z,97107.06
2023-01-08T08:34:51.532Z,97102.28
2023-01-08T08:37:20.338Z,97101.59
2023-01-08T08:39:47.781Z,97099.66
2023-01-08T08:42:15.319Z,97095.31
2023-01-08T08:44:43.145Z,97094.78
2023-01-08T08:47:11.173Z,97088.56
2023-01-08T08:49:38.649Z,97084.91
2023-01-08T08:52:06.198Z,97083.16
2023-01-08T08:54:37.937Z,97075.75
2023-01-08T08:57:05.480Z,97072.94
2023-01-08T08:59:32.959Z,97079.09
2023-01-08T09:02:00.541Z,97082.25
2023-01-08T09:04:30.980Z,97084.69
2023-01-08T09:06:58.721Z,97082.34
2023-01-08T09:09:26.964Z,97081.53
2023-01-08T09:11:55.885Z,97079.84
2023-01-08T09:14:23.362Z,97085.25
2023-01-08T09:16:50.877Z,97090.53
2023-01-08T09:19:18.369Z,97094.69
2023-01-08T09:21:45.970Z,97087.53
2023-01-08T09:24:13.419Z,97093.91
2023-01-08T09:26:40.875Z,97083.50
2023-01-08T09:29:09.816Z,97093.47
2023-01-08T09:31:37.207Z,97082.84
2023-01-08T09:34:04.739Z,97098.56
2023-01-08T09:36:32.274Z,97095.19
2023-01-08T09:38:59.801Z,97108.31
2023-01-08T09:41:31.385Z,97098.88
2023-01-08T09:44:00.407Z,97099.34
2023-01-08T09:46:29.587Z,97102.09
2023-01-08T09:49:00.945Z,97104.09
2023-01-08T09:51:34.749Z,97087.16
2023-01-08T09:54:03.542Z,97083.75
2023-01-08T09:56:31.188Z,97088.97
2023-01-08T09:59:00.797Z,97083.13
2023-01-08T10:01:31.525Z,97092.84
2023-01-08T10:04:05.924Z,97072.03
2023-01-08T10:06:34.053Z,97077.75
2023-01-08T10:09:01.612Z,97071.22
2023-01-08T10:11:36.500Z,97070.22
2023-01-08T10:14:04.400Z,97067.19
2023-01-08T10:16:37.962Z,97071.50
2023-01-08T10:19:06.018Z,97066.81
2023-01-08T10:21:38.682Z,97060.41
2023-01-08T10:24:06.828Z,97066.66
2023-01-08T10:26:36.358Z,97058.84
2023-01-08T10:29:08.609Z,97052.44
2023-01-08T10:31:46.102Z,97049.03
2023-01-08T10:34:26.643Z,97044.84
2023-01-08T10:36:55.928Z,97035.84
2023-01-08T10:39:26.683Z,97038.97
2023-01-08T10:41:59.853Z,97025.03
2023-01-08T10:44:29.319Z,97030.63
2023-01-08T10:47:01.542Z,97026.13
2023-01-08T10:49:33.382Z,97028.03
2023-01-08T10:52:01.397Z,97031.34
2023-01-08T10:54:37.707Z,97030.16
2023-01-08T10:57:23.357Z,97024.47
2023-01-08T10:59:50.870Z,97017.66
2023-01-08T11:02:30.717Z,97016.75
2023-01-08T11:04:59.940Z,97017.09
2023-01-08T11:07:28.811Z,97007.59
2023-01-08T11:09:56.370Z,97002.28
2023-01-08T11:12:33.664Z,97012.03
2023-01-08T11:15:01.606Z,97004.94
2023-01-08T11:17:30.781Z,97003.56
2023-01-08T11:20:09.165Z,97002.97
2023-01-08T11:22:36.752Z,97000.59
2023-01-08T11:25:06.979Z,96997.19
2023-01-08T11:27:37.810Z,96987.84
2023-01-08T11:30:12.083Z,96989.47
2023-01-08T11:32:48.840Z,96989.56
2023-01-08T11:35:20.513Z,96988.38
2023-01-08T11:37:52.331Z,96995.28
2023-01-08T11:40:29.586Z,96990.56
2023-01-08T11:43:12.638Z,96990.00
2023-01-08T11:45:54.852Z,96980.13
2023-01-08T11:48:38.835Z,96975.53
2023-01-08T11:51:31.392Z,96970.13
2023-01-08T11:54:15.742Z,96975.38
2023-01-08T11:57:00.023Z,96969.56
2023-01-08T11:59:35.996Z,96957.91
2023-01-08T12:02:14.460Z,96954.34
2023-01-08T12:04:59.696Z,96955.50
2023-01-08T12:07:33.813Z,96946.38
2023-01-08T12:10:14.709Z,96934.47
2023-01-08T12:12:54.365Z,96930.47
2023-01-08T12:15:33.611Z,96933.44
2023-01-08T12:18:21.434Z,96934.78
2023-01-08T12:20:59.765Z,96921.28
2023-01-08T12:23:43.355Z,96930.06
2023-01-08T12:26:19.739Z,96933.66
2023-01-08T12:29:04.973Z,96924.00
2023-01-08T12:32:01.545Z,96932.19
2023-01-08T12:34:39.681Z,96918.41
2023-01-08T12:37:15.535Z,96915.22
2023-01-08T12:39:50.984Z,96912.84
2023-01-08T12:42:24.486Z,96902.03
2023-01-08T12:44:55.647Z,96889.16
2023-01-08T12:47:27.170Z,96894.09
2023-01-08T12:50:05.024Z,96903.34
2023-01-08T12:52:45.109Z,96904.31
2023-01-08T12:55:23.206Z,96897.63
2023-01-08T12:57:57.926Z,96900.28
2023-01-08T13:00:34.401Z,96903.59
2023-01-08T13:03:04.062Z,96906.28
2023-01-08T13:05:34.402Z,96894.97
2023-01-08T13:08:05.846Z,96898.91
2023-01-08T13:10:36.483Z,96888.91
2023-01-08T13:13:05.711Z,96891.81
2023-01-08T13:15:35.030Z,96887.34
2023-01-08T13:18:09.411Z,96879.16
2023-01-08T13:20:37.102Z,96885.28
2023-01-08T13:23:06.718Z,96887.53
2023-01-08T13:25:36.163Z,96881.06
2023-01-08T13:28:26.777Z,96871.41
2023-01-08T13:30:55.707Z,96868.72
2023-01-08T13:33:29.153Z,96863.13
2023-01-08T13:36:20.864Z,96854.69
2023-01-08T13:39:20.051Z,96860.56
2023-01-08T13:42:00.126Z,96855.31
2023-01-08T13:44:30.167Z,96862.13
2023-01-08T13:46:59.658Z,96854.22
2023-01-08T13:49:30.037Z,96851.75
2023-01-08T13:51:57.584Z,96853.72
2023-01-08T13:54:36.300Z,96850.25
2023-01-08T13:57:08.084Z,96853.16
2023-01-08T13:59:40.169Z,96852.03
2023-01-08T14:02:24.242Z,96842.91
2023-01-08T14:04:52.774Z,96847.91
2023-01-08T14:07:20.445Z,96831.91
2023-01-08T14:09:49.282Z,96832.69
2023-01-08T14:12:20.179Z,96833.13
2023-01-08T14:14:51.646Z,96827.13
2023-01-08T14:17:21.102Z,96825.53
2023-01-08T14:19:48.804Z,96823.78
2023-01-08T14:22:23.374Z,96828.19
2023-01-08T14:24:58.091Z,96834.59
2023-01-08T14:27:27.385Z,96838.00
2023-01-08T14:29:55.416Z,96834.94
2023-01-08T14:32:25.027Z,96842.00
2023-01-08T14:34:54.679Z,96840.09
2023-01-08T14:37:22.232Z,96840.47
2023-01-08T14:39:54.338Z,96845.50
2023-01-08T14:42:46.976Z,96842.13
2023-01-08T14:45:19.659Z,96834.09
2023-01-08T14:47:49.362Z,96846.50
2023-01-08T14:50:21.945Z,96842.94
2023-01-08T14:52:50.516Z,96830.03
2023-01-08T14:55:20.977Z,96827.34
2023-01-08T14:57:52.953Z,96831.59
2023-01-08T15:00:24.374Z,96825.84
2023-01-08T15:02:51.956Z,96822.09
2023-01-08T15:05:23.296Z,96831.31
2023-01-08T15:08:00.489Z,96821.50
2023-01-08T15:10:40.505Z,96820.91
2023-01-08T15:13:23.054Z,96818.19
2023-01-08T15:15:57.396Z,96825.16
2023-01-08T15:18:25.296Z,96816.34
2023-01-08T15:20:53.440Z,96832.72
2023-01-08T15:23:33.701Z,96825.13
2023-01-08T15:26:01.339Z,96827.41
2023-01-08T15:28:30.244Z,96823.06
2023-01-08T15:30:58.096Z,96819.16
2023-01-08T15:33:27.199Z,96801.72
2023-01-08T15:35:54.685Z,96796.59
2023-01-08T15:38:23.728Z,96796.81
2023-01-08T15:40:53.081Z,96792.50
2023-01-08T15:43:21.527Z,96798.47
2023-01-08T15:45:51.135Z,96795.59
2023-01-08T15:48:18.793Z,96783.69
2023-01-08T15:50:46.532Z,96791.03
2023-01-08T15:53:19.342Z,96790.22
2023-01-08T15:55:47.271Z,96791.66
2023-01-08T15:58:15.954Z,96787.94
2023-01-08T16:00:45.578Z,96780.09
2023-01-08T16:03:15.690Z,96773.88
2023-01-08T16:05:43.283Z,96778.03
2023-01-08T16:08:11.924Z,96786.00
2023-01-08T16:10:41.571Z,96782.91
2023-01-08T16:13:11.744Z,96795.38
2023-01-08T16:15:39.911Z,96792.38
2023-01-08T16:18:07.475Z,96785.06
2023-01-08T16:20:36.376Z,96768.25
2023-01-08T16:23:03.746Z,96761.63
2023-01-08T16:25:32.031Z,96755.78
2023-01-08T16:27:59.562Z,96753.94
2023-01-08T16:30:27.864Z,96753.69
2023-01-08T16:32:55.666Z,96750.84
2023-01-08T16:35:23.585Z,96760.94
2023-01-08T16:37:52.369Z,96755.34
2023-01-08T16:40:19.938Z,96752.81
2023-01-08T16:42:47.382Z,96753.94
2023-01-08T16:45:14.868Z,96748.34
2023-01-08T16:47:42.407Z,96747.25
2023-01-08T16:50:11.743Z,96740.53
2023-01-08T16:52:42.329Z,96729.28
2023-01-08T16:55:11.704Z,96723.84
2023-01-08T16:57:39.182Z,96720.22
2023-01-08T17:00:08.265Z,96723.25
2023-01-08T17:02:35.750Z,96709.50
2023-01-08T17:05:03.199Z,96708.81
2023-01-08T17:07:30.683Z,96701.06
2023-01-08T17:09:58.210Z,96700.06
2023-01-08T17:12:27.171Z,96695.38
2023-01-08T17:14:54.642Z,96694.00
2023-01-08T17:17:22.154Z,96682.94
2023-01-08T17:19:49.735Z,96689.22
2023-01-08T17:22:17.302Z,96679.06
2023-01-08T17:24:47.599Z,96663.16
2023-01-08T17:27:15.089Z,96677.66
2023-01-08T17:29:44.023Z,96675.81
2023-01-08T17:32:12.642Z,96667.53
2023-01-08T17:34:40.111Z,96662.09
2023-01-08T17:37:07.760Z,96662.94
2023-01-08T17:39:35.271Z,96653.00
2023-01-08T17:42:20.248Z,96656.72
2023-01-08T17:44:49.044Z,96661.13
2023-01-08T17:47:16.978Z,96644.91
2023-01-08T17:49:44.468Z,96650.16
2023-01-08T17:52:12.006Z,96652.53
2023-01-08T17:54:39.515Z,96641.97
2023-01-08T17:57:07.119Z,96642.50
2023-01-08T17:59:34.616Z,96639.69
2023-01-08T18:02:03.599Z,96637.50
2023-01-08T18:04:32.271Z,96631.53
2023-01-08T18:07:00.000Z,96639.25
2023-01-08T18:09:27.454Z,96626.00
2023-01-08T18:11:55.047Z,96616.72
2023-01-08T18:14:22.633Z,96614.63
2023-01-08T18:16:50.249Z,96612.25
2023-01-08T18:19:19.989Z,96611.06
2023-01-08T18:21:48.021Z,96602.16
2023-01-08T18:24:16.133Z,96606.22
2023-01-08T18:26:43.903Z,96611.16
2023-01-08T18:29:11.355Z,96614.06
2023-01-08T18:31:39.123Z,96619.25
2023-01-08T18:34:06.681Z,96627.63
2023-01-08T18:36:35.784Z,96618.41
2023-01-08T18:39:03.460Z,96613.72
2023-01-08T18:41:48.782Z,96628.03
2023-01-08T18:44:16.257Z,96617.56
2023-01-08T18:46:45.387Z,96616.13
2023-01-08T18:49:12.962Z,96616.97
2023-01-08T18:51:41.810Z,96623.25
2023-01-08T18:54:11.076Z,96624.31
2023-01-08T18:56:38.755Z,96615.44
2023-01-08T18:59:07.967Z,96611.56
2023-01-08T19:01:36.407Z,96605.50
2023-01-08T19:04:04.133Z,96592.06
2023-01-08T19:06:32.024Z,96586.22
2023-01-08T19:09:01.176Z,96579.06
2023-01-08T19:11:28.825Z,96580.16
2023-01-08T19:13:56.526Z,96576.56
2023-01-08T19:16:24.197Z,96570.66
2023-01-08T19:18:51.753Z,96561.84
2023-01-08T19:21:19.780Z,96551.81
2023-01-08T19:23:47.891Z,96553.88
2023-01-08T19:26:17.605Z,96544.56
2023-01-08T19:28:45.292Z,96535.41
2023-01-08T19:31:15.222Z,96533.09
2023-01-08T19:33:43.266Z,96530.75
2023-01-08T19:36:12.745Z,96519.44
2023-01-08T19:38:43.799Z,96522.81
2023-01-08T19:41:25.900Z,96513.69
2023-01-08T19:43:55.267Z,96513.31
2023-01-08T19:46:22.984Z,96512.13
2023-01-08T19:48:50.547Z,96515.16
2023-01-08T19:51:18.469Z,96519.72
2023-01-08T19:53:46.008Z,96527.28
2023-01-08T19:56:15.323Z,96532.31
2023-01-08T19:58:43.239Z,96529.66
2023-01-08T20:01:14.420Z,96528.81
2023-01-08T20:03:42.726Z,96518.03
2023-01-08T20:06:12.406Z,96512.69
2023-01-08T20:08:40.679Z,96516.69
2023-01-08T20:11:09.856Z,96520.88
2023-01-08T20:13:37.388Z,96510.25
2023-01-08T20:16:07.036Z,96504.50
2023-01-08T20:18:36.448Z,96509.84
2023-01-08T20:21:05.957Z,96499.00
2023-01-08T20:23:33.617Z,96489.38
2023-01-08T20:26:02.657Z,96488.09
2023-01-08T20:28:30.135Z,96478.47
2023-01-08T20:30:57.669Z,96474.56
2023-01-08T20:33:25.111Z,96467.47
2023-01-08T20:35:53.899Z,96470.31
2023-01-08T20:38:23.198Z,96464.53
2023-01-08T20:40:53.393Z,96452.28
2023-01-08T20:43:20.873Z,96450.22
2023-01-08T20:45:50.456Z,96438.59
2023-01-08T20:48:17.939Z,96448.38
2023-01-08T20:50:46.951Z,96443.34
2023-01-08T20:53:15.741Z,96444.16
2023-01-08T20:55:43.882Z,96441.84
2023-01-08T20:58:11.365Z,96436.19
2023-01-08T21:00:38.868Z,96437.81
2023-01-08T21:03:06.436Z,96435.03
2023-01-08T21:05:40.609Z,96439.09
2023-01-08T21:08:08.513Z,96431.19
2023-01-08T21:10:37.393Z,96423.16
2023-01-08T21:13:04.704Z,96421.81
2023-01-08T21:15:32.202Z,96417.56
2023-01-08T21:17:59.653Z,96417.00
2023-01-08T21:20:29.544Z,96419.72
2023-01-08T21:22:57.679Z,96425.03
2023-01-08T21:25:25.101Z,96415.00
2023-01-08T21:27:53.931Z,96411.97
2023-01-08T21:30:21.550Z,96413.81
2023-01-08T21:32:49.011Z,96401.97
2023-01-08T21:35:16.507Z,96403.84
2023-01-08T21:37:46.073Z,96399.13
2023-01-08T21:40:15.059Z,96392.44
2023-01-08T21:42:59.307Z,96391.97
2023-01-08T21:45:29.546Z,96380.69
2023-01-08T21:47:58.873Z,96377.66
2023-01-08T21:50:26.455Z,96367.84
2023-01-08T21:53:11.927Z,96362.13
2023-01-08T21:55:41.288Z,96366.41
2023-01-08T21:58:08.959Z,96363.13
2023-01-08T22:00:39.463Z,96360.84
2023-01-08T22:03:06.952Z,96362.00
2023-01-08T22:05:34.422Z,96350.84
2023-01-08T22:08:01.947Z,96359.78
2023-01-08T22:10:29.422Z,96352.53
2023-01-08T22:12:56.859Z,96346.41
2023-01-08T22:15:24.321Z,96345.00
2023-01-08T22:17:53.161Z,96342.97
2023-01-08T22:20:20.833Z,96340.06
2023-01-08T22:22:49.795Z,96322.59
2023-01-08T22:25:17.266Z,96320.28
2023-01-08T22:27:44.730Z,96320.47
2023-01-08T22:30:12.586Z,96321.72
2023-01-08T22:32:40.049Z,96321.28
2023-01-08T22:35:09.395Z,96319.22
2023-01-08T22:37:37.463Z,96319.94
2023-01-08T22:40:05.359Z,96314.91
2023-01-08T22:42:32.865Z,96309.25
2023-01-08T22:45:00.405Z,96310.19
2023-01-08T22:47:28.637Z,96309.91
2023-01-08T22:49:56.176Z,96303.94
2023-01-08T22:52:24.979Z,96295.72
2023-01-08T22:54:54.677Z,96303.75
2023-01-08T22:57:25.244Z,96307.00
2023-01-08T22:59:53.143Z,96299.28
2023-01-08T23:02:26.574Z,96304.28
2023-01-08T23:04:55.234Z,96308.25
2023-01-08T23:07:24.328Z,96301.88
2023-01-08T23:09:53.111Z,96300.84
2023-01-08T23:12:20.562Z,96293.66
2023-01-08T23:14:48.316Z,96286.34
2023-01-08T23:17:15.779Z,96285.63
2023-01-08T23:19:43.262Z,96284.50
2023-01-08T23:22:10.741Z,96284.28
2023-01-08T23:24:38.202Z,96285.94
2023-01-08T23:27:07.061Z,96285.56
2023-01-08T23:29:34.593Z,96276.44
2023-01-08T23:32:02.084Z,96279.19
2023-01-08T23:34:29.553Z,96275.28
2023-01-08T23:36:56.985Z,96275.31
2023-01-08T23:39:28.113Z,96269.97
2023-01-08T23:41:56.086Z,96262.47
2023-01-08T23:44:24.946Z,96268.56
2023-01-08T23:46:52.427Z,96256.31
2023-01-08T23:49:19.855Z,96258.41
2023-01-08T23:51:47.356Z,96262.28
2023-01-08T23:54:14.833Z,96256.16
2023-01-08T23:56:43.673Z,96257.75
2023-01-08T23:59:11.036Z,96257.34
